sensor_id;sensor_type;location;lat;lon;timestamp;P1;durP1;ratioP1;P2;durP2;ratioP2
27013;SDS011;14556;52.222;4.510;2024-02-15T00:00:52;5.23;;;1.93;;
27013;SDS011;14556;52.222;4.510;2024-02-15T00:03:19;6.07;;;2.00;;
27013;SDS011;14556;52.222;4.510;2024-02-15T00:05:47;8.23;;;2.73;;
27013;SDS011;14556;52.222;4.510;2024-02-15T00:08:15;7.03;;;2.87;;
27013;SDS011;14556;52.222;4.510;2024-02-15T00:10:44;10.77;;;3.73;;
27013;SDS011;14556;52.222;4.510;2024-02-15T00:13:13;10.43;;;2.90;;
27013;SDS011;14556;52.222;4.510;2024-02-15T00:15:39;10.50;;;3.20;;
27013;SDS011;14556;52.222;4.510;2024-02-15T00:18:06;9.37;;;3.07;;
27013;SDS011;14556;52.222;4.510;2024-02-15T00:20:33;11.10;;;3.70;;
27013;SDS011;14556;52.222;4.510;2024-02-15T00:23:00;7.33;;;3.13;;
27013;SDS011;14556;52.222;4.510;2024-02-15T00:25:27;9.17;;;3.07;;
27013;SDS011;14556;52.222;4.510;2024-02-15T00:27:54;11.40;;;3.57;;
27013;SDS011;14556;52.222;4.510;2024-02-15T00:30:20;5.40;;;2.87;;
27013;SDS011;14556;52.222;4.510;2024-02-15T00:32:47;9.07;;;3.33;;
27013;SDS011;14556;52.222;4.510;2024-02-15T00:35:14;6.93;;;3.27;;
27013;SDS011;14556;52.222;4.510;2024-02-15T00:37:41;9.83;;;2.97;;
27013;SDS011;14556;52.222;4.510;2024-02-15T00:40:08;8.87;;;3.43;;
27013;SDS011;14556;52.222;4.510;2024-02-15T00:42:35;6.23;;;3.33;;
27013;SDS011;14556;52.222;4.510;2024-02-15T00:45:04;8.47;;;3.70;;
27013;SDS011;14556;52.222;4.510;2024-02-15T00:47:31;9.70;;;3.37;;
27013;SDS011;14556;52.222;4.510;2024-02-15T00:49:59;6.53;;;3.00;;
27013;SDS011;14556;52.222;4.510;2024-02-15T00:52:28;11.30;;;3.33;;
27013;SDS011;14556;52.222;4.510;2024-02-15T00:54:55;9.80;;;3.00;;
27013;SDS011;14556;52.222;4.510;2024-02-15T00:57:21;8.00;;;3.00;;
27013;SDS011;14556;52.222;4.510;2024-02-15T00:59:48;7.23;;;3.20;;
27013;SDS011;14556;52.222;4.510;2024-02-15T01:02:14;7.30;;;2.80;;
27013;SDS011;14556;52.222;4.510;2024-02-15T01:04:41;5.20;;;2.40;;
27013;SDS011;14556;52.222;4.510;2024-02-15T01:07:09;7.50;;;3.03;;
27013;SDS011;14556;52.222;4.510;2024-02-15T01:09:36;6.33;;;2.60;;
27013;SDS011;14556;52.222;4.510;2024-02-15T01:12:02;8.70;;;3.20;;
27013;SDS011;14556;52.222;4.510;2024-02-15T01:14:30;5.53;;;2.73;;
27013;SDS011;14556;52.222;4.510;2024-02-15T01:16:57;8.20;;;2.87;;
27013;SDS011;14556;52.222;4.510;2024-02-15T01:19:24;8.10;;;2.80;;
27013;SDS011;14556;52.222;4.510;2024-02-15T01:21:50;5.60;;;3.07;;
27013;SDS011;14556;52.222;4.510;2024-02-15T01:24:19;7.97;;;3.07;;
27013;SDS011;14556;52.222;4.510;2024-02-15T01:26:45;15.27;;;3.57;;
27013;SDS011;14556;52.222;4.510;2024-02-15T01:29:15;8.40;;;2.93;;
27013;SDS011;14556;52.222;4.510;2024-02-15T01:31:42;7.00;;;3.10;;
27013;SDS011;14556;52.222;4.510;2024-02-15T01:34:11;4.93;;;3.40;;
27013;SDS011;14556;52.222;4.510;2024-02-15T01:36:38;6.37;;;3.60;;
27013;SDS011;14556;52.222;4.510;2024-02-15T01:39:05;9.53;;;4.23;;
27013;SDS011;14556;52.222;4.510;2024-02-15T01:41:31;10.87;;;4.63;;
27013;SDS011;14556;52.222;4.510;2024-02-15T01:43:58;10.67;;;4.37;;
27013;SDS011;14556;52.222;4.510;2024-02-15T01:46:27;6.97;;;4.37;;
27013;SDS011;14556;52.222;4.510;2024-02-15T01:48:55;12.53;;;4.93;;
27013;SDS011;14556;52.222;4.510;2024-02-15T01:51:23;10.10;;;4.97;;
27013;SDS011;14556;52.222;4.510;2024-02-15T01:53:50;9.10;;;5.00;;
27013;SDS011;14556;52.222;4.510;2024-02-15T01:56:19;8.77;;;5.43;;
27013;SDS011;14556;52.222;4.510;2024-02-15T01:58:46;9.53;;;5.17;;
27013;SDS011;14556;52.222;4.510;2024-02-15T02:01:13;9.77;;;5.10;;
27013;SDS011;14556;52.222;4.510;2024-02-15T02:03:41;11.97;;;5.47;;
27013;SDS011;14556;52.222;4.510;2024-02-15T02:06:07;13.53;;;5.83;;
27013;SDS011;14556;52.222;4.510;2024-02-15T02:08:34;11.20;;;5.37;;
27013;SDS011;14556;52.222;4.510;2024-02-15T02:11:01;12.17;;;5.87;;
27013;SDS011;14556;52.222;4.510;2024-02-15T02:13:30;9.67;;;5.50;;
27013;SDS011;14556;52.222;4.510;2024-02-15T02:15:59;12.67;;;5.80;;
27013;SDS011;14556;52.222;4.510;2024-02-15T02:18:26;16.00;;;5.43;;
27013;SDS011;14556;52.222;4.510;2024-02-15T02:20:54;13.50;;;5.77;;
27013;SDS011;14556;52.222;4.510;2024-02-15T02:23:23;10.80;;;5.40;;
27013;SDS011;14556;52.222;4.510;2024-02-15T02:25:54;13.43;;;5.40;;
27013;SDS011;14556;52.222;4.510;2024-02-15T02:28:21;10.43;;;5.13;;
27013;SDS011;14556;52.222;4.510;2024-02-15T02:30:48;12.73;;;6.37;;
27013;SDS011;14556;52.222;4.510;2024-02-15T02:33:15;11.23;;;5.57;;
27013;SDS011;14556;52.222;4.510;2024-02-15T02:35:50;9.40;;;5.20;;
27013;SDS011;14556;52.222;4.510;2024-02-15T02:38:18;10.30;;;5.47;;
27013;SDS011;14556;52.222;4.510;2024-02-15T02:40:44;9.37;;;5.30;;
27013;SDS011;14556;52.222;4.510;2024-02-15T02:43:12;9.00;;;5.10;;
27013;SDS011;14556;52.222;4.510;2024-02-15T02:45:39;8.27;;;4.53;;
27013;SDS011;14556;52.222;4.510;2024-02-15T02:48:06;10.93;;;5.17;;
27013;SDS011;14556;52.222;4.510;2024-02-15T02:50:33;9.77;;;5.60;;
27013;SDS011;14556;52.222;4.510;2024-02-15T02:52:59;8.73;;;5.10;;
27013;SDS011;14556;52.222;4.510;2024-02-15T02:55:27;11.07;;;5.27;;
27013;SDS011;14556;52.222;4.510;2024-02-15T02:57:54;12.13;;;4.83;;
27013;SDS011;14556;52.222;4.510;2024-02-15T03:00:22;7.50;;;4.80;;
27013;SDS011;14556;52.222;4.510;2024-02-15T03:02:56;8.47;;;4.57;;
27013;SDS011;14556;52.222;4.510;2024-02-15T03:05:23;6.60;;;4.47;;
27013;SDS011;14556;52.222;4.510;2024-02-15T03:07:49;9.97;;;4.57;;
27013;SDS011;14556;52.222;4.510;2024-02-15T03:10:20;9.50;;;4.40;;
27013;SDS011;14556;52.222;4.510;2024-02-15T03:12:47;7.17;;;4.00;;
27013;SDS011;14556;52.222;4.510;2024-02-15T03:15:15;10.27;;;4.97;;
27013;SDS011;14556;52.222;4.510;2024-02-15T03:17:42;7.30;;;3.40;;
27013;SDS011;14556;52.222;4.510;2024-02-15T03:20:10;7.60;;;3.67;;
27013;SDS011;14556;52.222;4.510;2024-02-15T03:22:54;10.00;;;3.83;;
27013;SDS011;14556;52.222;4.510;2024-02-15T03:25:22;6.00;;;3.93;;
27013;SDS011;14556;52.222;4.510;2024-02-15T03:27:52;6.17;;;3.30;;
27013;SDS011;14556;52.222;4.510;2024-02-15T03:30:20;10.00;;;4.00;;
27013;SDS011;14556;52.222;4.510;2024-02-15T03:32:47;5.93;;;3.47;;
27013;SDS011;14556;52.222;4.510;2024-02-15T03:35:15;5.97;;;3.40;;
27013;SDS011;14556;52.222;4.510;2024-02-15T03:37:41;7.20;;;3.40;;
27013;SDS011;14556;52.222;4.510;2024-02-15T03:40:08;6.33;;;3.77;;
27013;SDS011;14556;52.222;4.510;2024-02-15T03:42:37;6.93;;;3.57;;
27013;SDS011;14556;52.222;4.510;2024-02-15T03:45:03;9.57;;;4.07;;
27013;SDS011;14556;52.222;4.510;2024-02-15T03:47:32;5.80;;;3.87;;
27013;SDS011;14556;52.222;4.510;2024-02-15T03:50:05;9.57;;;3.40;;
27013;SDS011;14556;52.222;4.510;2024-02-15T03:52:32;8.23;;;3.67;;
27013;SDS011;14556;52.222;4.510;2024-02-15T03:54:58;6.93;;;3.60;;
27013;SDS011;14556;52.222;4.510;2024-02-15T03:57:26;8.53;;;3.57;;
27013;SDS011;14556;52.222;4.510;2024-02-15T03:59:52;7.20;;;3.53;;
27013;SDS011;14556;52.222;4.510;2024-02-15T04:02:21;8.10;;;4.40;;
27013;SDS011;14556;52.222;4.510;2024-02-15T04:04:49;6.77;;;3.70;;
27013;SDS011;14556;52.222;4.510;2024-02-15T04:07:19;6.73;;;3.97;;
27013;SDS011;14556;52.222;4.510;2024-02-15T04:09:45;7.13;;;3.63;;
27013;SDS011;14556;52.222;4.510;2024-02-15T04:12:12;8.43;;;3.50;;
27013;SDS011;14556;52.222;4.510;2024-02-15T04:14:47;8.03;;;3.80;;
27013;SDS011;14556;52.222;4.510;2024-02-15T04:17:15;5.70;;;3.70;;
27013;SDS011;14556;52.222;4.510;2024-02-15T04:19:46;7.57;;;4.20;;
27013;SDS011;14556;52.222;4.510;2024-02-15T04:22:13;6.07;;;4.17;;
27013;SDS011;14556;52.222;4.510;2024-02-15T04:24:43;7.53;;;3.83;;
27013;SDS011;14556;52.222;4.510;2024-02-15T04:27:12;8.53;;;4.17;;
27013;SDS011;14556;52.222;4.510;2024-02-15T04:29:40;8.13;;;5.00;;
27013;SDS011;14556;52.222;4.510;2024-02-15T04:32:07;5.33;;;4.13;;
27013;SDS011;14556;52.222;4.510;2024-02-15T04:34:39;5.47;;;4.20;;
27013;SDS011;14556;52.222;4.510;2024-02-15T04:37:06;7.53;;;4.90;;
27013;SDS011;14556;52.222;4.510;2024-02-15T04:39:35;9.87;;;4.80;;
27013;SDS011;14556;52.222;4.510;2024-02-15T04:42:02;10.87;;;4.87;;
27013;SDS011;14556;52.222;4.510;2024-02-15T04:44:29;6.63;;;4.73;;
27013;SDS011;14556;52.222;4.510;2024-02-15T04:46:55;10.70;;;5.07;;
27013;SDS011;14556;52.222;4.510;2024-02-15T04:49:24;7.83;;;6.03;;
27013;SDS011;14556;52.222;4.510;2024-02-15T04:51:50;7.23;;;5.13;;
27013;SDS011;14556;52.222;4.510;2024-02-15T04:54:17;9.07;;;5.53;;
27013;SDS011;14556;52.222;4.510;2024-02-15T04:56:44;12.13;;;6.20;;
27013;SDS011;14556;52.222;4.510;2024-02-15T04:59:12;11.23;;;6.43;;
27013;SDS011;14556;52.222;4.510;2024-02-15T05:01:41;12.07;;;7.30;;
27013;SDS011;14556;52.222;4.510;2024-02-15T05:04:12;12.50;;;8.13;;
27013;SDS011;14556;52.222;4.510;2024-02-15T05:06:40;12.37;;;7.60;;
27013;SDS011;14556;52.222;4.510;2024-02-15T05:09:06;15.37;;;9.03;;
27013;SDS011;14556;52.222;4.510;2024-02-15T05:11:45;12.67;;;7.43;;
27013;SDS011;14556;52.222;4.510;2024-02-15T05:14:15;11.10;;;7.63;;
27013;SDS011;14556;52.222;4.510;2024-02-15T05:16:49;12.97;;;7.10;;
27013;SDS011;14556;52.222;4.510;2024-02-15T05:19:16;13.33;;;7.80;;
27013;SDS011;14556;52.222;4.510;2024-02-15T05:21:43;11.60;;;7.67;;
27013;SDS011;14556;52.222;4.510;2024-02-15T05:24:15;13.33;;;8.50;;
27013;SDS011;14556;52.222;4.510;2024-02-15T05:26:43;16.13;;;8.17;;
27013;SDS011;14556;52.222;4.510;2024-02-15T05:29:21;13.20;;;7.80;;
27013;SDS011;14556;52.222;4.510;2024-02-15T05:31:51;13.60;;;8.67;;
27013;SDS011;14556;52.222;4.510;2024-02-15T05:34:18;17.43;;;8.23;;
27013;SDS011;14556;52.222;4.510;2024-02-15T05:36:45;12.53;;;8.10;;
27013;SDS011;14556;52.222;4.510;2024-02-15T05:39:11;17.60;;;9.47;;
27013;SDS011;14556;52.222;4.510;2024-02-15T05:41:40;15.37;;;9.00;;
27013;SDS011;14556;52.222;4.510;2024-02-15T05:44:09;13.57;;;9.33;;
27013;SDS011;14556;52.222;4.510;2024-02-15T05:46:36;15.30;;;9.67;;
27013;SDS011;14556;52.222;4.510;2024-02-15T05:49:04;14.57;;;9.13;;
27013;SDS011;14556;52.222;4.510;2024-02-15T05:51:31;16.20;;;9.60;;
27013;SDS011;14556;52.222;4.510;2024-02-15T05:54:00;16.80;;;8.77;;
27013;SDS011;14556;52.222;4.510;2024-02-15T05:56:27;13.57;;;9.50;;
27013;SDS011;14556;52.222;4.510;2024-02-15T05:58:55;17.30;;;8.77;;
27013;SDS011;14556;52.222;4.510;2024-02-15T06:01:23;16.00;;;9.40;;
27013;SDS011;14556;52.222;4.510;2024-02-15T06:03:50;16.73;;;9.97;;
27013;SDS011;14556;52.222;4.510;2024-02-15T06:06:21;18.50;;;10.13;;
27013;SDS011;14556;52.222;4.510;2024-02-15T06:08:49;18.87;;;9.97;;
27013;SDS011;14556;52.222;4.510;2024-02-15T06:11:18;15.10;;;9.83;;
27013;SDS011;14556;52.222;4.510;2024-02-15T06:13:46;16.47;;;10.30;;
27013;SDS011;14556;52.222;4.510;2024-02-15T06:16:12;17.00;;;9.47;;
27013;SDS011;14556;52.222;4.510;2024-02-15T06:18:39;15.67;;;9.37;;
27013;SDS011;14556;52.222;4.510;2024-02-15T06:21:05;13.17;;;8.87;;
27013;SDS011;14556;52.222;4.510;2024-02-15T06:23:32;14.53;;;8.80;;
27013;SDS011;14556;52.222;4.510;2024-02-15T06:25:59;15.57;;;9.33;;
27013;SDS011;14556;52.222;4.510;2024-02-15T06:28:28;13.20;;;8.57;;
27013;SDS011;14556;52.222;4.510;2024-02-15T06:31:14;13.43;;;8.90;;
27013;SDS011;14556;52.222;4.510;2024-02-15T06:33:59;15.87;;;9.23;;
27013;SDS011;14556;52.222;4.510;2024-02-15T06:36:48;11.57;;;7.53;;
27013;SDS011;14556;52.222;4.510;2024-02-15T06:39:33;15.10;;;8.87;;
27013;SDS011;14556;52.222;4.510;2024-02-15T06:42:13;14.47;;;9.07;;
27013;SDS011;14556;52.222;4.510;2024-02-15T06:44:44;12.33;;;8.30;;
27013;SDS011;14556;52.222;4.510;2024-02-15T06:47:11;12.87;;;7.53;;
27013;SDS011;14556;52.222;4.510;2024-02-15T06:49:39;16.67;;;8.30;;
27013;SDS011;14556;52.222;4.510;2024-02-15T06:52:09;11.87;;;7.23;;
27013;SDS011;14556;52.222;4.510;2024-02-15T06:54:41;11.37;;;7.23;;
27013;SDS011;14556;52.222;4.510;2024-02-15T06:57:07;13.60;;;7.03;;
27013;SDS011;14556;52.222;4.510;2024-02-15T06:59:34;9.80;;;6.90;;
27013;SDS011;14556;52.222;4.510;2024-02-15T07:02:01;9.67;;;6.03;;
27013;SDS011;14556;52.222;4.510;2024-02-15T07:04:28;10.73;;;6.83;;
27013;SDS011;14556;52.222;4.510;2024-02-15T07:06:55;11.47;;;6.57;;
27013;SDS011;14556;52.222;4.510;2024-02-15T07:09:23;15.43;;;6.83;;
27013;SDS011;14556;52.222;4.510;2024-02-15T07:11:51;11.43;;;5.93;;
27013;SDS011;14556;52.222;4.510;2024-02-15T07:14:18;9.23;;;5.33;;
27013;SDS011;14556;52.222;4.510;2024-02-15T07:16:46;6.57;;;5.03;;
27013;SDS011;14556;52.222;4.510;2024-02-15T07:19:13;11.60;;;5.00;;
27013;SDS011;14556;52.222;4.510;2024-02-15T07:21:40;7.03;;;4.80;;
27013;SDS011;14556;52.222;4.510;2024-02-15T07:24:07;8.03;;;5.00;;
27013;SDS011;14556;52.222;4.510;2024-02-15T07:26:33;7.73;;;4.93;;
27013;SDS011;14556;52.222;4.510;2024-02-15T07:29:02;9.40;;;5.47;;
27013;SDS011;14556;52.222;4.510;2024-02-15T07:31:32;7.40;;;4.87;;
27013;SDS011;14556;52.222;4.510;2024-02-15T07:34:01;6.87;;;4.83;;
27013;SDS011;14556;52.222;4.510;2024-02-15T07:36:30;8.83;;;4.63;;
27013;SDS011;14556;52.222;4.510;2024-02-15T07:38:56;5.90;;;4.33;;
27013;SDS011;14556;52.222;4.510;2024-02-15T07:41:30;7.13;;;4.47;;
27013;SDS011;14556;52.222;4.510;2024-02-15T07:43:57;6.03;;;4.30;;
27013;SDS011;14556;52.222;4.510;2024-02-15T07:46:25;5.03;;;3.77;;
27013;SDS011;14556;52.222;4.510;2024-02-15T07:48:51;8.27;;;4.97;;
27013;SDS011;14556;52.222;4.510;2024-02-15T07:51:20;8.47;;;4.50;;
27013;SDS011;14556;52.222;4.510;2024-02-15T07:53:47;10.67;;;4.60;;
27013;SDS011;14556;52.222;4.510;2024-02-15T07:56:14;6.30;;;4.07;;
27013;SDS011;14556;52.222;4.510;2024-02-15T07:58:42;6.03;;;4.47;;
27013;SDS011;14556;52.222;4.510;2024-02-15T08:01:08;5.33;;;4.13;;
27013;SDS011;14556;52.222;4.510;2024-02-15T08:03:36;6.43;;;4.40;;
27013;SDS011;14556;52.222;4.510;2024-02-15T08:06:03;6.30;;;4.20;;
27013;SDS011;14556;52.222;4.510;2024-02-15T08:08:33;6.13;;;4.43;;
27013;SDS011;14556;52.222;4.510;2024-02-15T08:11:04;5.50;;;4.40;;
27013;SDS011;14556;52.222;4.510;2024-02-15T08:13:30;5.93;;;4.27;;
27013;SDS011;14556;52.222;4.510;2024-02-15T08:15:57;7.77;;;5.20;;
27013;SDS011;14556;52.222;4.510;2024-02-15T08:18:23;8.77;;;4.60;;
27013;SDS011;14556;52.222;4.510;2024-02-15T08:20:51;6.87;;;4.40;;
27013;SDS011;14556;52.222;4.510;2024-02-15T08:23:17;8.03;;;5.27;;
27013;SDS011;14556;52.222;4.510;2024-02-15T08:25:44;10.43;;;5.90;;
27013;SDS011;14556;52.222;4.510;2024-02-15T08:28:10;7.60;;;5.67;;
27013;SDS011;14556;52.222;4.510;2024-02-15T08:30:37;8.80;;;5.70;;
27013;SDS011;14556;52.222;4.510;2024-02-15T08:33:04;7.67;;;5.00;;
27013;SDS011;14556;52.222;4.510;2024-02-15T08:35:30;9.90;;;6.37;;
27013;SDS011;14556;52.222;4.510;2024-02-15T08:37:58;7.70;;;5.93;;
27013;SDS011;14556;52.222;4.510;2024-02-15T08:40:25;11.80;;;6.93;;
27013;SDS011;14556;52.222;4.510;2024-02-15T08:42:52;12.10;;;6.60;;
27013;SDS011;14556;52.222;4.510;2024-02-15T08:45:18;9.63;;;6.13;;
27013;SDS011;14556;52.222;4.510;2024-02-15T08:47:47;9.60;;;6.80;;
27013;SDS011;14556;52.222;4.510;2024-02-15T08:50:16;8.00;;;5.50;;
27013;SDS011;14556;52.222;4.510;2024-02-15T08:52:44;10.00;;;6.57;;
27013;SDS011;14556;52.222;4.510;2024-02-15T08:55:10;9.87;;;6.40;;
27013;SDS011;14556;52.222;4.510;2024-02-15T08:57:40;14.13;;;7.97;;
27013;SDS011;14556;52.222;4.510;2024-02-15T09:00:07;13.23;;;7.40;;
27013;SDS011;14556;52.222;4.510;2024-02-15T09:02:41;9.77;;;7.03;;
27013;SDS011;14556;52.222;4.510;2024-02-15T09:05:08;13.17;;;6.73;;
27013;SDS011;14556;52.222;4.510;2024-02-15T09:07:35;10.50;;;6.60;;
27013;SDS011;14556;52.222;4.510;2024-02-15T09:10:03;14.70;;;7.57;;
27013;SDS011;14556;52.222;4.510;2024-02-15T09:12:29;15.23;;;7.93;;
27013;SDS011;14556;52.222;4.510;2024-02-15T09:14:57;14.73;;;8.30;;
27013;SDS011;14556;52.222;4.510;2024-02-15T09:17:24;13.03;;;8.07;;
27013;SDS011;14556;52.222;4.510;2024-02-15T09:19:52;16.60;;;7.20;;
27013;SDS011;14556;52.222;4.510;2024-02-15T09:22:21;14.60;;;7.27;;
27013;SDS011;14556;52.222;4.510;2024-02-15T09:24:48;11.77;;;8.13;;
27013;SDS011;14556;52.222;4.510;2024-02-15T09:27:14;16.73;;;8.33;;
27013;SDS011;14556;52.222;4.510;2024-02-15T09:29:41;15.50;;;8.40;;
27013;SDS011;14556;52.222;4.510;2024-02-15T09:32:08;12.73;;;8.03;;
27013;SDS011;14556;52.222;4.510;2024-02-15T09:34:35;13.67;;;8.10;;
27013;SDS011;14556;52.222;4.510;2024-02-15T09:37:01;17.27;;;8.90;;
27013;SDS011;14556;52.222;4.510;2024-02-15T09:39:28;15.17;;;9.20;;
27013;SDS011;14556;52.222;4.510;2024-02-15T09:41:54;12.57;;;8.20;;
27013;SDS011;14556;52.222;4.510;2024-02-15T09:44:27;16.40;;;9.10;;
27013;SDS011;14556;52.222;4.510;2024-02-15T09:47:03;13.40;;;9.00;;
27013;SDS011;14556;52.222;4.510;2024-02-15T09:49:38;14.40;;;7.87;;
27013;SDS011;14556;52.222;4.510;2024-02-15T09:52:06;14.17;;;7.60;;
27013;SDS011;14556;52.222;4.510;2024-02-15T09:54:39;13.03;;;8.47;;
27013;SDS011;14556;52.222;4.510;2024-02-15T09:57:05;16.33;;;8.30;;
27013;SDS011;14556;52.222;4.510;2024-02-15T09:59:33;14.30;;;7.87;;
27013;SDS011;14556;52.222;4.510;2024-02-15T10:02:02;16.07;;;7.97;;
27013;SDS011;14556;52.222;4.510;2024-02-15T10:04:30;15.20;;;7.70;;
27013;SDS011;14556;52.222;4.510;2024-02-15T10:07:01;12.50;;;7.47;;
27013;SDS011;14556;52.222;4.510;2024-02-15T10:09:28;14.90;;;7.90;;
27013;SDS011;14556;52.222;4.510;2024-02-15T10:11:58;15.00;;;8.37;;
27013;SDS011;14556;52.222;4.510;2024-02-15T10:14:25;17.93;;;8.70;;
27013;SDS011;14556;52.222;4.510;2024-02-15T10:17:05;18.73;;;8.47;;
27013;SDS011;14556;52.222;4.510;2024-02-15T10:19:32;18.47;;;8.63;;
27013;SDS011;14556;52.222;4.510;2024-02-15T10:22:08;13.90;;;7.87;;
27013;SDS011;14556;52.222;4.510;2024-02-15T10:24:35;13.03;;;8.30;;
27013;SDS011;14556;52.222;4.510;2024-02-15T10:27:03;11.57;;;7.50;;
27013;SDS011;14556;52.222;4.510;2024-02-15T10:29:30;14.57;;;7.87;;
27013;SDS011;14556;52.222;4.510;2024-02-15T10:31:57;17.63;;;8.77;;
27013;SDS011;14556;52.222;4.510;2024-02-15T10:34:27;12.60;;;7.53;;
27013;SDS011;14556;52.222;4.510;2024-02-15T10:36:54;16.20;;;8.17;;
27013;SDS011;14556;52.222;4.510;2024-02-15T10:39:24;15.20;;;9.13;;
27013;SDS011;14556;52.222;4.510;2024-02-15T10:41:52;14.57;;;8.23;;
27013;SDS011;14556;52.222;4.510;2024-02-15T10:44:21;12.33;;;8.07;;
27013;SDS011;14556;52.222;4.510;2024-02-15T10:46:51;15.97;;;9.03;;
27013;SDS011;14556;52.222;4.510;2024-02-15T10:49:19;16.13;;;8.27;;
27013;SDS011;14556;52.222;4.510;2024-02-15T10:51:49;13.53;;;8.10;;
27013;SDS011;14556;52.222;4.510;2024-02-15T10:57:03;14.87;;;8.53;;
27013;SDS011;14556;52.222;4.510;2024-02-15T10:59:37;14.57;;;8.47;;
27013;SDS011;14556;52.222;4.510;2024-02-15T11:03:00;16.50;;;7.57;;
27013;SDS011;14556;52.222;4.510;2024-02-15T11:05:04;15.83;;;9.10;;
27013;SDS011;14556;52.222;4.510;2024-02-15T11:07:32;13.63;;;8.63;;
27013;SDS011;14556;52.222;4.510;2024-02-15T11:09:59;13.67;;;8.67;;
27013;SDS011;14556;52.222;4.510;2024-02-15T11:12:27;15.17;;;7.67;;
27013;SDS011;14556;52.222;4.510;2024-02-15T11:14:54;17.60;;;9.10;;
27013;SDS011;14556;52.222;4.510;2024-02-15T11:20:03;16.40;;;8.67;;
27013;SDS011;14556;52.222;4.510;2024-02-15T11:22:35;14.63;;;8.37;;
27013;SDS011;14556;52.222;4.510;2024-02-15T11:25:09;16.37;;;9.70;;
27013;SDS011;14556;52.222;4.510;2024-02-15T11:27:38;16.17;;;8.27;;
27013;SDS011;14556;52.222;4.510;2024-02-15T11:30:05;15.73;;;8.70;;
27013;SDS011;14556;52.222;4.510;2024-02-15T11:32:47;20.97;;;9.50;;
27013;SDS011;14556;52.222;4.510;2024-02-15T11:35:17;13.10;;;7.77;;
27013;SDS011;14556;52.222;4.510;2024-02-15T11:40:16;13.90;;;7.67;;
27013;SDS011;14556;52.222;4.510;2024-02-15T11:42:46;10.37;;;7.20;;
27013;SDS011;14556;52.222;4.510;2024-02-15T11:45:14;10.77;;;7.23;;
27013;SDS011;14556;52.222;4.510;2024-02-15T11:47:41;13.30;;;6.87;;
27013;SDS011;14556;52.222;4.510;2024-02-15T11:50:09;15.13;;;6.83;;
27013;SDS011;14556;52.222;4.510;2024-02-15T11:52:44;14.40;;;7.80;;
27013;SDS011;14556;52.222;4.510;2024-02-15T11:55:12;9.83;;;5.27;;
27013;SDS011;14556;52.222;4.510;2024-02-15T11:57:41;8.27;;;5.63;;
27013;SDS011;14556;52.222;4.510;2024-02-15T12:00:23;10.03;;;6.30;;
27013;SDS011;14556;52.222;4.510;2024-02-15T12:03:08;9.90;;;6.87;;
27013;SDS011;14556;52.222;4.510;2024-02-15T12:05:56;9.93;;;5.30;;
27013;SDS011;14556;52.222;4.510;2024-02-15T12:08:45;7.50;;;4.90;;
27013;SDS011;14556;52.222;4.510;2024-02-15T12:11:31;6.60;;;4.93;;
27013;SDS011;14556;52.222;4.510;2024-02-15T12:14:16;7.53;;;5.00;;
27013;SDS011;14556;52.222;4.510;2024-02-15T12:19:47;7.73;;;4.97;;
27013;SDS011;14556;52.222;4.510;2024-02-15T12:22:35;11.47;;;4.97;;
27013;SDS011;14556;52.222;4.510;2024-02-15T12:25:04;7.67;;;4.97;;
27013;SDS011;14556;52.222;4.510;2024-02-15T12:27:38;10.23;;;4.60;;
27013;SDS011;14556;52.222;4.510;2024-02-15T12:30:05;10.87;;;4.93;;
27013;SDS011;14556;52.222;4.510;2024-02-15T12:32:33;9.57;;;5.13;;
27013;SDS011;14556;52.222;4.510;2024-02-15T12:35:15;10.43;;;5.03;;
27013;SDS011;14556;52.222;4.510;2024-02-15T12:38:00;8.07;;;5.33;;
27013;SDS011;14556;52.222;4.510;2024-02-15T12:40:35;10.63;;;5.20;;
27013;SDS011;14556;52.222;4.510;2024-02-15T12:43:04;11.07;;;6.43;;
27013;SDS011;14556;52.222;4.510;2024-02-15T12:45:31;8.57;;;5.63;;
27013;SDS011;14556;52.222;4.510;2024-02-15T12:47:58;13.87;;;5.90;;
27013;SDS011;14556;52.222;4.510;2024-02-15T12:50:28;9.30;;;6.07;;
27013;SDS011;14556;52.222;4.510;2024-02-15T12:52:56;7.67;;;5.83;;
27013;SDS011;14556;52.222;4.510;2024-02-15T12:55:35;10.83;;;5.40;;
27013;SDS011;14556;52.222;4.510;2024-02-15T12:58:02;14.33;;;4.87;;
27013;SDS011;14556;52.222;4.510;2024-02-15T13:00:35;11.33;;;4.43;;
27013;SDS011;14556;52.222;4.510;2024-02-15T13:03:08;8.87;;;4.40;;
27013;SDS011;14556;52.222;4.510;2024-02-15T13:05:37;7.83;;;4.77;;
27013;SDS011;14556;52.222;4.510;2024-02-15T13:08:04;7.83;;;4.37;;
27013;SDS011;14556;52.222;4.510;2024-02-15T13:10:41;6.70;;;3.43;;
27013;SDS011;14556;52.222;4.510;2024-02-15T13:13:07;9.67;;;4.53;;
27013;SDS011;14556;52.222;4.510;2024-02-15T13:15:37;5.43;;;3.90;;
27013;SDS011;14556;52.222;4.510;2024-02-15T13:18:04;5.57;;;3.73;;
27013;SDS011;14556;52.222;4.510;2024-02-15T13:20:32;5.60;;;3.90;;
27013;SDS011;14556;52.222;4.510;2024-02-15T13:25:35;6.53;;;3.17;;
27013;SDS011;14556;52.222;4.510;2024-02-15T13:28:09;4.87;;;3.07;;
27013;SDS011;14556;52.222;4.510;2024-02-15T13:30:40;9.73;;;2.93;;
27013;SDS011;14556;52.222;4.510;2024-02-15T13:33:07;4.90;;;3.10;;
27013;SDS011;14556;52.222;4.510;2024-02-15T13:35:34;6.57;;;2.90;;
27013;SDS011;14556;52.222;4.510;2024-02-15T13:38:00;7.07;;;2.97;;
27013;SDS011;14556;52.222;4.510;2024-02-15T13:40:28;4.90;;;2.77;;
27013;SDS011;14556;52.222;4.510;2024-02-15T13:42:58;4.47;;;2.00;;
27013;SDS011;14556;52.222;4.510;2024-02-15T13:45:29;5.10;;;2.43;;
27013;SDS011;14556;52.222;4.510;2024-02-15T13:47:59;7.17;;;2.17;;
27013;SDS011;14556;52.222;4.510;2024-02-15T13:50:30;4.03;;;2.50;;
27013;SDS011;14556;52.222;4.510;2024-02-15T13:52:57;4.77;;;2.67;;
27013;SDS011;14556;52.222;4.510;2024-02-15T13:55:26;5.60;;;2.27;;
27013;SDS011;14556;52.222;4.510;2024-02-15T13:57:53;4.10;;;2.17;;
27013;SDS011;14556;52.222;4.510;2024-02-15T14:00:24;6.17;;;2.40;;
27013;SDS011;14556;52.222;4.510;2024-02-15T14:02:57;4.93;;;2.00;;
27013;SDS011;14556;52.222;4.510;2024-02-15T14:05:25;3.07;;;1.90;;
27013;SDS011;14556;52.222;4.510;2024-02-15T14:07:55;3.07;;;1.70;;
27013;SDS011;14556;52.222;4.510;2024-02-15T14:10:22;3.53;;;2.03;;
27013;SDS011;14556;52.222;4.510;2024-02-15T14:12:50;4.83;;;1.97;;
27013;SDS011;14556;52.222;4.510;2024-02-15T14:15:19;2.97;;;2.00;;
27013;SDS011;14556;52.222;4.510;2024-02-15T14:17:45;3.07;;;2.00;;
27013;SDS011;14556;52.222;4.510;2024-02-15T14:20:12;6.27;;;2.50;;
27013;SDS011;14556;52.222;4.510;2024-02-15T14:22:45;5.00;;;2.40;;
27013;SDS011;14556;52.222;4.510;2024-02-15T14:25:18;3.30;;;1.97;;
27013;SDS011;14556;52.222;4.510;2024-02-15T14:27:45;7.40;;;2.33;;
27013;SDS011;14556;52.222;4.510;2024-02-15T14:30:14;3.10;;;1.87;;
27013;SDS011;14556;52.222;4.510;2024-02-15T14:32:59;3.47;;;2.30;;
27013;SDS011;14556;52.222;4.510;2024-02-15T14:35:35;4.10;;;2.70;;
27013;SDS011;14556;52.222;4.510;2024-02-15T14:38:02;6.87;;;2.00;;
27013;SDS011;14556;52.222;4.510;2024-02-15T14:40:33;3.50;;;2.07;;
27013;SDS011;14556;52.222;4.510;2024-02-15T14:43:03;4.57;;;2.40;;
27013;SDS011;14556;52.222;4.510;2024-02-15T14:45:34;3.43;;;2.20;;
27013;SDS011;14556;52.222;4.510;2024-02-15T14:48:02;5.70;;;2.60;;
27013;SDS011;14556;52.222;4.510;2024-02-15T14:50:29;5.80;;;2.70;;
27013;SDS011;14556;52.222;4.510;2024-02-15T14:52:57;6.10;;;2.47;;
27013;SDS011;14556;52.222;4.510;2024-02-15T14:55:23;5.87;;;2.20;;
27013;SDS011;14556;52.222;4.510;2024-02-15T14:57:50;8.63;;;2.20;;
27013;SDS011;14556;52.222;4.510;2024-02-15T15:00:17;4.10;;;2.13;;
27013;SDS011;14556;52.222;4.510;2024-02-15T15:02:46;4.53;;;2.50;;
27013;SDS011;14556;52.222;4.510;2024-02-15T15:05:15;3.90;;;2.20;;